createdAt,value
2023-11-29T00:00:46.172Z,14.52
2023-11-29T00:01:49.434Z,16.02
2023-11-29T00:02:52.460Z,14.70
2023-11-29T00:03:55.481Z,16.77
2023-11-29T00:04:59.254Z,16.08
2023-11-29T00:06:04.268Z,16.10
2023-11-29T00:07:07.960Z,15.75
2023-11-29T00:08:10.893Z,17.33
2023-11-29T00:09:13.883Z,15.23
2023-11-29T00:10:16.591Z,18.15
2023-11-29T00:11:19.418Z,15.38
2023-11-29T00:12:22.783Z,16.25
2023-11-29T00:13:25.774Z,16.17
2023-11-29T00:14:28.546Z,17.05
2023-11-29T00:15:31.376Z,16.42
2023-11-29T00:16:34.312Z,18.08
2023-11-29T00:17:37.572Z,16.00
2023-11-29T00:18:40.621Z,16.03
2023-11-29T00:19:44.463Z,14.30
2023-11-29T00:20:47.505Z,15.63
2023-11-29T00:21:50.456Z,15.30
2023-11-29T00:22:53.530Z,15.95
2023-11-29T00:23:56.153Z,15.38
2023-11-29T00:24:58.815Z,17.58
2023-11-29T00:26:01.662Z,15.10
2023-11-29T00:27:07.585Z,14.87
2023-11-29T00:28:10.696Z,15.57
2023-11-29T00:29:13.404Z,15.97
2023-11-29T00:30:16.452Z,18.12
2023-11-29T00:31:19.909Z,17.80
2023-11-29T00:32:23.066Z,15.85
2023-11-29T00:33:26.061Z,13.38
2023-11-29T00:34:28.948Z,16.60
2023-11-29T00:35:32.069Z,14.57
2023-11-29T00:36:35.050Z,15.27
2023-11-29T00:37:37.735Z,14.35
2023-11-29T00:38:40.725Z,14.90
2023-11-29T00:39:43.495Z,14.00
2023-11-29T00:40:46.922Z,14.43
2023-11-29T00:41:49.796Z,14.63
2023-11-29T00:43:00.165Z,16.23
2023-11-29T00:44:07.057Z,13.23
2023-11-29T00:45:10.538Z,15.13
2023-11-29T00:46:13.228Z,15.15
2023-11-29T00:47:15.934Z,14.95
2023-11-29T00:48:18.939Z,14.60
2023-11-29T00:49:22.065Z,14.10
2023-11-29T00:50:26.083Z,13.43
2023-11-29T00:51:29.034Z,13.40
2023-11-29T00:52:31.766Z,12.30
2023-11-29T00:53:34.455Z,14.27
2023-11-29T00:54:37.748Z,13.73
2023-11-29T00:55:40.603Z,13.45
2023-11-29T00:56:43.517Z,13.13
2023-11-29T00:57:46.488Z,13.57
2023-11-29T00:58:49.399Z,13.68
2023-11-29T00:59:52.861Z,14.23
2023-11-29T01:00:55.855Z,14.20
2023-11-29T01:01:58.938Z,14.43
2023-11-29T01:03:02.185Z,13.88
2023-11-29T01:04:05.283Z,13.18
2023-11-29T01:05:08.901Z,13.27
2023-11-29T01:06:11.789Z,13.93
2023-11-29T01:07:14.686Z,12.77
2023-11-29T01:08:17.637Z,13.27
2023-11-29T01:09:20.975Z,13.38
2023-11-29T01:10:25.745Z,13.10
2023-11-29T01:11:28.955Z,12.80
2023-11-29T01:12:31.550Z,14.32
2023-11-29T01:13:34.466Z,13.23
2023-11-29T01:14:37.156Z,13.57
2023-11-29T01:15:40.291Z,13.48
2023-11-29T01:16:42.888Z,13.48
2023-11-29T01:17:45.686Z,13.68
2023-11-29T01:18:48.929Z,12.68
2023-11-29T01:19:51.876Z,12.95
2023-11-29T01:20:55.395Z,11.30
2023-11-29T01:21:58.353Z,12.00
2023-11-29T01:23:01.328Z,12.00
2023-11-29T01:24:04.566Z,12.40
2023-11-29T01:25:08.088Z,11.77
2023-11-29T01:26:11.385Z,10.88
2023-11-29T01:27:14.254Z,13.45
2023-11-29T01:28:16.840Z,12.37
2023-11-29T01:29:19.793Z,13.77
2023-11-29T01:30:22.718Z,13.40
2023-11-29T01:31:28.401Z,13.20
2023-11-29T01:32:31.311Z,12.40
2023-11-29T01:33:35.065Z,14.23
2023-11-29T01:34:41.136Z,12.45
2023-11-29T01:35:44.017Z,15.65
2023-11-29T01:36:47.665Z,14.30
2023-11-29T01:37:52.139Z,14.95
2023-11-29T01:38:55.033Z,15.50
2023-11-29T01:39:58.689Z,13.15
2023-11-29T01:41:02.136Z,16.17
2023-11-29T01:42:05.612Z,12.98
2023-11-29T01:43:08.444Z,14.87
2023-11-29T01:44:11.295Z,13.15
2023-11-29T01:45:14.256Z,15.48
2023-11-29T01:46:18.182Z,14.77
2023-11-29T01:47:21.524Z,14.77
2023-11-29T01:48:26.504Z,14.20
2023-11-29T01:49:29.358Z,13.38
2023-11-29T01:50:36.757Z,13.07
2023-11-29T01:51:39.843Z,15.23
2023-11-29T01:52:44.964Z,14.93
2023-11-29T01:53:48.736Z,15.07
2023-11-29T01:54:51.656Z,13.82
2023-11-29T01:55:55.176Z,16.48
2023-11-29T01:56:57.932Z,14.75
2023-11-29T01:58:00.899Z,15.15
2023-11-29T01:59:03.900Z,15.23
2023-11-29T02:00:08.342Z,15.65
2023-11-29T02:01:16.300Z,15.40
2023-11-29T02:02:20.543Z,14.55
2023-11-29T02:03:23.658Z,17.70
2023-11-29T02:04:26.818Z,16.23
2023-11-29T02:05:29.497Z,15.38
2023-11-29T02:06:32.578Z,16.33
2023-11-29T02:07:37.350Z,16.45
2023-11-29T02:08:40.177Z,14.77
2023-11-29T02:09:43.631Z,17.42
2023-11-29T02:10:47.854Z,16.42
2023-11-29T02:11:51.227Z,17.62
2023-11-29T02:12:54.471Z,16.05
2023-11-29T02:13:57.111Z,16.20
2023-11-29T02:14:59.999Z,17.63
2023-11-29T02:16:03.435Z,14.93
2023-11-29T02:17:06.639Z,17.23
2023-11-29T02:18:09.935Z,16.58
2023-11-29T02:19:12.644Z,16.20
2023-11-29T02:20:18.741Z,17.77
2023-11-29T02:21:25.129Z,17.50
2023-11-29T02:22:29.300Z,16.48
2023-11-29T02:23:46.500Z,17.27
2023-11-29T02:24:49.627Z,16.90
2023-11-29T02:25:52.384Z,16.23
2023-11-29T02:26:58.050Z,18.77
2023-11-29T02:28:03.843Z,18.67
2023-11-29T02:29:06.750Z,15.88
2023-11-29T02:30:10.137Z,18.33
2023-11-29T02:31:13.049Z,17.65
2023-11-29T02:32:16.178Z,14.63
2023-11-29T02:33:19.458Z,15.82
2023-11-29T02:34:22.071Z,18.00
2023-11-29T02:35:25.040Z,16.42
2023-11-29T02:36:27.659Z,16.03
2023-11-29T02:37:30.568Z,15.32
2023-11-29T02:38:33.774Z,15.80
2023-11-29T02:39:36.739Z,16.55
2023-11-29T02:40:39.901Z,17.17
2023-11-29T02:41:42.835Z,17.10
2023-11-29T02:42:45.765Z,16.73
2023-11-29T02:43:56.377Z,16.90
2023-11-29T02:44:59.057Z,16.02
2023-11-29T02:46:01.751Z,17.73
2023-11-29T02:47:04.741Z,14.93
2023-11-29T02:48:07.976Z,17.40
2023-11-29T02:49:11.319Z,17.12
2023-11-29T02:50:14.543Z,22.85
2023-11-29T02:51:17.487Z,28.05
2023-11-29T02:52:20.388Z,33.92
2023-11-29T02:53:23.297Z,32.72
2023-11-29T02:54:26.555Z,34.40
2023-11-29T02:55:29.560Z,28.33
2023-11-29T02:56:32.499Z,26.80
2023-11-29T02:57:35.546Z,24.50
2023-11-29T02:58:38.268Z,24.65
2023-11-29T02:59:42.905Z,21.92
2023-11-29T03:00:45.645Z,19.98
2023-11-29T03:01:48.601Z,18.83
2023-11-29T03:02:51.669Z,19.65
2023-11-29T03:03:54.429Z,17.42
2023-11-29T03:04:58.697Z,18.58
2023-11-29T03:06:01.278Z,17.08
2023-11-29T03:07:04.501Z,16.40
2023-11-29T03:08:09.256Z,15.43
2023-11-29T03:09:12.288Z,15.73
2023-11-29T03:10:15.505Z,17.02
2023-11-29T03:11:18.457Z,18.55
2023-11-29T03:12:21.417Z,16.05
2023-11-29T03:13:28.635Z,15.85
2023-11-29T03:14:31.676Z,15.60
2023-11-29T03:15:34.875Z,15.68
2023-11-29T03:16:37.910Z,15.68
2023-11-29T03:17:40.857Z,17.05
2023-11-29T03:18:49.612Z,15.27
2023-11-29T03:19:52.360Z,16.58
2023-11-29T03:20:55.631Z,17.42
2023-11-29T03:21:58.539Z,15.07
2023-11-29T03:23:01.364Z,18.12
2023-11-29T03:24:04.103Z,17.20
2023-11-29T03:25:09.195Z,18.17
2023-11-29T03:26:12.098Z,15.68
2023-11-29T03:27:18.379Z,16.42
2023-11-29T03:28:21.280Z,17.35
2023-11-29T03:29:26.647Z,16.43
2023-11-29T03:30:29.749Z,15.68
2023-11-29T03:31:32.944Z,15.45
2023-11-29T03:32:35.720Z,14.43
2023-11-29T03:33:38.615Z,16.98
2023-11-29T03:34:48.679Z,17.17
2023-11-29T03:35:51.953Z,17.30
2023-11-29T03:36:56.584Z,14.35
2023-11-29T03:37:59.345Z,16.40
2023-11-29T03:39:02.357Z,16.77
2023-11-29T03:40:05.672Z,16.47
2023-11-29T03:41:09.160Z,17.70
2023-11-29T03:42:12.413Z,16.85
2023-11-29T03:43:15.124Z,17.23
2023-11-29T03:44:18.025Z,15.55
2023-11-29T03:45:21.850Z,17.25
2023-11-29T03:46:25.170Z,16.85
2023-11-29T03:47:28.400Z,18.65
2023-11-29T03:48:31.351Z,18.40
2023-11-29T03:49:34.236Z,16.30
2023-11-29T03:50:37.089Z,14.70
2023-11-29T03:51:44.942Z,17.73
2023-11-29T03:52:50.537Z,16.75
2023-11-29T03:53:53.225Z,18.50
2023-11-29T03:54:56.182Z,22.40
2023-11-29T03:55:58.771Z,19.30
2023-11-29T03:57:01.897Z,22.45
2023-11-29T03:58:06.005Z,19.55
2023-11-29T03:59:10.068Z,18.10
2023-11-29T04:00:15.096Z,14.60
2023-11-29T04:01:19.674Z,16.33
2023-11-29T04:02:22.733Z,15.50
2023-11-29T04:03:25.606Z,16.15
2023-11-29T04:04:28.596Z,14.18
2023-11-29T04:05:31.275Z,14.73
2023-11-29T04:06:34.242Z,15.05
2023-11-29T04:07:37.128Z,14.98
2023-11-29T04:08:40.029Z,15.80
2023-11-29T04:09:46.286Z,15.55
2023-11-29T04:10:50.160Z,16.40
2023-11-29T04:11:53.410Z,16.73
2023-11-29T04:12:56.511Z,17.85
2023-11-29T04:13:59.410Z,19.25
2023-11-29T04:15:02.176Z,16.75
2023-11-29T04:16:06.342Z,16.15
2023-11-29T04:17:10.347Z,17.15
2023-11-29T04:18:13.104Z,15.07
2023-11-29T04:19:15.992Z,14.38
2023-11-29T04:20:18.757Z,13.55
2023-11-29T04:21:33.617Z,14.68
2023-11-29T04:22:39.411Z,13.63
2023-11-29T04:23:42.466Z,15.02
2023-11-29T04:24:45.732Z,13.35
2023-11-29T04:25:48.659Z,16.33
2023-11-29T04:26:51.842Z,16.60
2023-11-29T04:27:55.137Z,14.80
2023-11-29T04:28:59.384Z,14.63
2023-11-29T04:30:02.688Z,15.18
2023-11-29T04:31:06.356Z,12.70
2023-11-29T04:32:09.304Z,14.73
2023-11-29T04:33:12.383Z,14.40
2023-11-29T04:34:23.296Z,14.87
2023-11-29T04:35:35.979Z,16.25
2023-11-29T04:36:40.440Z,14.40
2023-11-29T04:37:43.914Z,13.57
2023-11-29T04:38:47.669Z,12.40
2023-11-29T04:39:50.580Z,13.38
2023-11-29T04:40:53.175Z,13.10
2023-11-29T04:41:56.074Z,13.05
2023-11-29T04:42:58.909Z,13.62
2023-11-29T04:44:02.091Z,12.23
2023-11-29T04:45:05.468Z,15.68
2023-11-29T04:46:08.204Z,14.75
2023-11-29T04:47:11.062Z,13.23
2023-11-29T04:48:13.942Z,15.20
2023-11-29T04:49:17.134Z,15.70
2023-11-29T04:50:20.116Z,13.90
2023-11-29T04:51:23.072Z,16.25
2023-11-29T04:52:25.747Z,17.33
2023-11-29T04:53:28.808Z,16.73
2023-11-29T04:54:32.021Z,16.97
2023-11-29T04:55:34.859Z,14.65
2023-11-29T04:56:37.718Z,17.27
2023-11-29T04:57:40.663Z,16.50
2023-11-29T04:58:43.281Z,14.85
2023-11-29T04:59:46.264Z,14.75
2023-11-29T05:00:49.446Z,12.30
2023-11-29T05:01:52.959Z,14.93
2023-11-29T05:02:56.986Z,14.00
2023-11-29T05:03:59.738Z,15.57
2023-11-29T05:05:02.989Z,17.30
2023-11-29T05:06:07.129Z,15.30
2023-11-29T05:07:10.098Z,15.07
2023-11-29T05:08:13.020Z,13.68
2023-11-29T05:09:16.137Z,15.00
2023-11-29T05:10:19.048Z,14.18
2023-11-29T05:11:22.006Z,12.55
2023-11-29T05:12:24.741Z,13.05
2023-11-29T05:13:27.785Z,12.77
2023-11-29T05:14:30.603Z,11.50
2023-11-29T05:15:35.617Z,12.10
2023-11-29T05:16:38.498Z,14.40
2023-11-29T05:17:41.475Z,13.48
2023-11-29T05:18:44.699Z,13.10
2023-11-29T05:19:47.695Z,13.38
2023-11-29T05:20:50.934Z,15.27
2023-11-29T05:21:53.912Z,14.07
2023-11-29T05:22:57.065Z,12.43
2023-11-29T05:24:00.222Z,12.30
2023-11-29T05:25:03.134Z,11.85
2023-11-29T05:26:07.692Z,10.83
2023-11-29T05:27:10.985Z,11.50
2023-11-29T05:28:13.894Z,10.57
2023-11-29T05:29:17.254Z,10.52
2023-11-29T05:30:20.239Z,11.32
2023-11-29T05:31:23.325Z,9.70
2023-11-29T05:32:26.389Z,10.52
2023-11-29T05:33:31.052Z,9.27
2023-11-29T05:34:34.765Z,12.15
2023-11-29T05:35:37.897Z,13.32
2023-11-29T05:36:40.825Z,9.70
2023-11-29T05:37:43.942Z,10.57
2023-11-29T05:38:46.698Z,11.63
2023-11-29T05:39:49.954Z,9.27
2023-11-29T05:40:52.588Z,10.65
2023-11-29T05:41:56.525Z,10.05
2023-11-29T05:42:59.617Z,10.02
2023-11-29T05:44:02.484Z,10.45
2023-11-29T05:45:08.482Z,10.80
2023-11-29T05:46:11.287Z,11.15
2023-11-29T05:47:15.024Z,11.17
2023-11-29T05:48:18.058Z,11.10
2023-11-29T05:49:21.728Z,9.88
2023-11-29T05:50:24.646Z,10.80
2023-11-29T05:51:28.331Z,11.05
2023-11-29T05:52:31.282Z,9.73
2023-11-29T05:53:34.169Z,12.02
2023-11-29T05:54:37.134Z,10.90
2023-11-29T05:55:40.008Z,10.45
2023-11-29T05:56:42.905Z,11.65
2023-11-29T05:57:46.614Z,11.87
2023-11-29T05:58:50.248Z,12.27
2023-11-29T05:59:52.846Z,11.23
2023-11-29T06:00:55.817Z,9.88
2023-11-29T06:01:59.918Z,10.13
2023-11-29T06:03:03.143Z,10.30
2023-11-29T06:04:07.306Z,11.25
2023-11-29T06:05:10.291Z,10.25
2023-11-29T06:06:14.221Z,10.68
2023-11-29T06:07:17.465Z,10.23
2023-11-29T06:08:21.272Z,9.53
2023-11-29T06:09:29.746Z,9.90
2023-11-29T06:10:32.420Z,11.07
2023-11-29T06:11:38.262Z,9.88
2023-11-29T06:12:41.301Z,9.77
2023-11-29T06:13:43.923Z,10.02
2023-11-29T06:14:47.618Z,11.12
2023-11-29T06:15:50.669Z,9.05
2023-11-29T06:16:54.558Z,10.23
2023-11-29T06:17:57.835Z,10.48
2023-11-29T06:19:01.154Z,9.20
2023-11-29T06:20:13.224Z,9.38
2023-11-29T06:21:16.145Z,9.90
2023-11-29T06:22:19.606Z,10.55
2023-11-29T06:23:22.882Z,14.05
2023-11-29T06:24:25.970Z,14.05
2023-11-29T06:25:28.774Z,15.32
2023-11-29T06:26:33.862Z,11.38
2023-11-29T06:27:37.443Z,10.93
2023-11-29T06:28:41.625Z,9.20
2023-11-29T06:29:44.342Z,9.33
2023-11-29T06:30:47.167Z,9.25
2023-11-29T06:31:49.961Z,9.32
2023-11-29T06:32:53.043Z,12.50
2023-11-29T06:33:55.982Z,12.10
2023-11-29T06:34:58.598Z,13.60
2023-11-29T06:36:04.461Z,13.27
2023-11-29T06:37:08.588Z,15.32
2023-11-29T06:38:11.543Z,15.95
2023-11-29T06:39:14.695Z,17.00
2023-11-29T06:40:20.262Z,14.70
2023-11-29T06:41:23.225Z,13.82
2023-11-29T06:42:25.838Z,12.68
2023-11-29T06:43:28.836Z,12.43
2023-11-29T06:44:31.786Z,13.20
2023-11-29T06:45:34.998Z,11.85
2023-11-29T06:46:40.696Z,11.18
2023-11-29T06:47:43.691Z,11.55
2023-11-29T06:48:46.671Z,9.98
2023-11-29T06:49:50.571Z,9.48
2023-11-29T06:50:55.094Z,9.13
2023-11-29T06:51:58.089Z,9.70
2023-11-29T06:53:02.185Z,10.68
2023-11-29T06:54:05.692Z,10.23
2023-11-29T06:55:08.730Z,11.93
2023-11-29T06:56:11.980Z,11.07
2023-11-29T06:57:15.111Z,13.90
2023-11-29T06:58:23.519Z,13.45
2023-11-29T06:59:27.013Z,11.07
2023-11-29T07:00:30.292Z,10.70
2023-11-29T07:01:33.957Z,11.47
2023-11-29T07:02:42.980Z,12.88
2023-11-29T07:03:46.064Z,11.55
2023-11-29T07:04:50.206Z,12.48
2023-11-29T07:05:54.889Z,13.43
2023-11-29T07:06:57.588Z,15.85
2023-11-29T07:08:00.391Z,12.40
2023-11-29T07:09:07.201Z,13.02
2023-11-29T07:10:11.031Z,11.27
2023-11-29T07:11:14.612Z,10.63
2023-11-29T07:12:17.973Z,13.77
2023-11-29T07:13:20.638Z,17.70
2023-11-29T07:14:24.812Z,12.30
2023-11-29T07:15:27.804Z,14.52
2023-11-29T07:16:30.989Z,15.90
2023-11-29T07:17:35.177Z,21.58
2023-11-29T07:18:38.759Z,15.38
2023-11-29T07:19:41.992Z,13.20
2023-11-29T07:20:46.685Z,13.32
2023-11-29T07:21:50.195Z,11.65
2023-11-29T07:22:52.794Z,11.20
2023-11-29T07:23:56.012Z,12.93
2023-11-29T07:24:58.973Z,10.90
2023-11-29T07:26:01.841Z,11.73
2023-11-29T07:27:04.695Z,11.63
2023-11-29T07:28:07.581Z,9.13
2023-11-29T07:29:10.191Z,12.55
2023-11-29T07:30:12.948Z,9.40
2023-11-29T07:31:16.083Z,12.80
2023-11-29T07:32:23.818Z,11.18
2023-11-29T07:33:26.898Z,13.87
2023-11-29T07:34:29.894Z,12.23
2023-11-29T07:35:32.561Z,15.10
2023-11-29T07:36:35.240Z,18.87
2023-11-29T07:37:38.422Z,16.75
2023-11-29T07:38:42.036Z,15.27
2023-11-29T07:39:44.777Z,14.13
2023-11-29T07:40:47.763Z,15.10
2023-11-29T07:41:50.696Z,12.40
2023-11-29T07:42:56.227Z,10.32
2023-11-29T07:43:59.116Z,12.40
2023-11-29T07:45:02.154Z,11.10
2023-11-29T07:46:06.040Z,13.07
2023-11-29T07:47:09.087Z,17.55
2023-11-29T07:48:12.413Z,16.23
2023-11-29T07:49:16.624Z,16.75
2023-11-29T07:50:19.772Z,15.13
2023-11-29T07:51:23.786Z,15.10
2023-11-29T07:52:26.656Z,13.57
2023-11-29T07:53:32.415Z,12.35
2023-11-29T07:54:35.353Z,11.30
2023-11-29T07:55:38.254Z,12.07
2023-11-29T07:56:43.866Z,9.95
2023-11-29T07:57:48.074Z,11.80
2023-11-29T07:58:51.055Z,10.82
2023-11-29T07:59:53.853Z,11.65
2023-11-29T08:00:56.714Z,8.52
2023-11-29T08:01:59.927Z,9.73
2023-11-29T08:03:03.093Z,10.57
2023-11-29T08:04:06.598Z,9.90
2023-11-29T08:05:09.996Z,9.23
2023-11-29T08:06:12.877Z,9.30
2023-11-29T08:07:15.820Z,10.40
2023-11-29T08:08:18.650Z,8.65
2023-11-29T08:09:22.043Z,8.60
2023-11-29T08:10:24.738Z,8.90
2023-11-29T08:11:29.161Z,10.68
2023-11-29T08:12:32.438Z,8.43
2023-11-29T08:13:35.270Z,8.57
2023-11-29T08:14:38.134Z,7.40
2023-11-29T08:15:42.455Z,7.97
2023-11-29T08:16:45.435Z,9.50
2023-11-29T08:17:48.480Z,8.65
2023-11-29T08:18:53.838Z,10.38
2023-11-29T08:19:56.981Z,8.70
2023-11-29T08:20:59.637Z,8.63
2023-11-29T08:22:05.045Z,8.25
2023-11-29T08:23:08.230Z,9.55
2023-11-29T08:24:10.841Z,11.95
2023-11-29T08:25:14.230Z,11.02
2023-11-29T08:26:17.090Z,12.57
2023-11-29T08:27:20.341Z,10.80
2023-11-29T08:28:24.468Z,10.90
2023-11-29T08:29:27.417Z,12.63
2023-11-29T08:30:30.279Z,10.98
2023-11-29T08:31:33.170Z,10.45
2023-11-29T08:32:37.124Z,10.95
2023-11-29T08:33:41.884Z,11.70
2023-11-29T08:34:47.027Z,11.07
2023-11-29T08:35:50.037Z,12.13
2023-11-29T08:36:54.257Z,10.03
2023-11-29T08:37:59.274Z,8.88
2023-11-29T08:39:03.889Z,10.38
2023-11-29T08:40:09.064Z,7.87
2023-11-29T08:41:11.936Z,8.65
2023-11-29T08:42:15.003Z,8.93
2023-11-29T08:43:23.496Z,9.40
2023-11-29T08:44:27.367Z,9.65
2023-11-29T08:45:31.318Z,8.90
2023-11-29T08:46:34.172Z,10.40
2023-11-29T08:47:37.531Z,9.03
2023-11-29T08:48:40.698Z,9.35
2023-11-29T08:49:43.835Z,7.60
2023-11-29T08:50:46.807Z,8.48
2023-11-29T08:51:49.763Z,9.10
2023-11-29T08:52:52.754Z,9.38
2023-11-29T08:53:56.728Z,9.63
2023-11-29T08:55:00.238Z,10.52
2023-11-29T08:56:03.627Z,10.73
2023-11-29T08:57:06.762Z,9.82
2023-11-29T08:58:10.220Z,8.33
2023-11-29T08:59:13.234Z,9.20
2023-11-29T09:00:16.936Z,9.20
2023-11-29T09:01:26.193Z,8.68
2023-11-29T09:02:28.964Z,8.38
2023-11-29T09:03:32.091Z,8.35
2023-11-29T09:04:35.054Z,8.73
2023-11-29T09:05:40.875Z,7.07
2023-11-29T09:06:43.591Z,8.90
2023-11-29T09:07:46.168Z,7.18
2023-11-29T09:08:49.526Z,7.97
2023-11-29T09:09:52.437Z,9.00
2023-11-29T09:10:55.570Z,8.45
2023-11-29T09:11:58.479Z,8.60
2023-11-29T09:13:01.507Z,10.52
2023-11-29T09:14:04.261Z,8.80
2023-11-29T09:15:07.952Z,8.73
2023-11-29T09:16:12.308Z,10.15
2023-11-29T09:17:17.929Z,12.37
2023-11-29T09:18:20.748Z,15.30
2023-11-29T09:19:23.980Z,15.63
2023-11-29T09:20:27.231Z,15.50
2023-11-29T09:21:36.393Z,15.35
2023-11-29T09:22:41.918Z,14.00
2023-11-29T09:23:45.855Z,11.80
2023-11-29T09:24:49.790Z,12.98
2023-11-29T09:25:52.423Z,11.27
2023-11-29T09:26:58.514Z,9.55
2023-11-29T09:28:07.804Z,9.25
2023-11-29T09:29:10.704Z,10.68
2023-11-29T09:30:14.386Z,9.60
2023-11-29T09:31:17.053Z,9.48
2023-11-29T09:32:20.283Z,9.27
2023-11-29T09:33:23.220Z,10.38
2023-11-29T09:34:26.196Z,10.13
2023-11-29T09:35:28.906Z,9.30
2023-11-29T09:36:31.885Z,10.00
2023-11-29T09:37:35.198Z,9.90
2023-11-29T09:38:37.819Z,10.05
2023-11-29T09:39:40.670Z,9.88
2023-11-29T09:40:44.019Z,8.73
2023-11-29T09:41:47.173Z,10.50
2023-11-29T09:43:00.027Z,9.52
2023-11-29T09:44:04.842Z,9.55
2023-11-29T09:45:11.977Z,8.32
2023-11-29T09:46:15.626Z,9.05
2023-11-29T09:47:19.044Z,10.23
2023-11-29T09:48:22.727Z,13.40
2023-11-29T09:49:27.494Z,15.10
2023-11-29T09:50:32.752Z,14.25
2023-11-29T09:51:37.206Z,13.63
2023-11-29T09:52:42.892Z,12.45
2023-11-29T09:53:46.045Z,11.02
2023-11-29T09:54:49.683Z,9.52
2023-11-29T09:55:54.360Z,9.73
2023-11-29T09:56:56.926Z,8.90
2023-11-29T09:58:00.922Z,8.70
2023-11-29T09:59:04.975Z,8.82
2023-11-29T10:00:11.230Z,9.57
2023-11-29T10:01:14.210Z,9.98
2023-11-29T10:02:21.200Z,10.30
2023-11-29T10:03:24.226Z,7.97
2023-11-29T10:04:27.237Z,9.05
2023-11-29T10:05:30.230Z,10.20
2023-11-29T10:06:35.970Z,10.02
2023-11-29T10:07:40.411Z,9.32
2023-11-29T10:08:43.380Z,11.15
2023-11-29T10:09:46.503Z,10.25
2023-11-29T10:10:50.415Z,9.05
2023-11-29T10:11:54.691Z,9.07
2023-11-29T10:12:58.062Z,8.93
2023-11-29T10:14:01.088Z,9.75
2023-11-29T10:15:07.819Z,11.10
2023-11-29T10:16:18.198Z,9.85
2023-11-29T10:17:21.580Z,10.10
2023-11-29T10:18:24.543Z,12.55
2023-11-29T10:19:27.216Z,9.85
2023-11-29T10:20:31.004Z,7.95
2023-11-29T10:21:33.912Z,9.40
2023-11-29T10:22:37.063Z,9.23
2023-11-29T10:23:46.170Z,8.67
2023-11-29T10:24:49.903Z,7.62
2023-11-29T10:25:52.823Z,8.07
2023-11-29T10:26:55.720Z,8.32
2023-11-29T10:27:59.727Z,9.52
2023-11-29T10:29:02.782Z,8.93
2023-11-29T10:30:07.134Z,9.40
2023-11-29T10:31:10.313Z,9.52
2023-11-29T10:32:14.305Z,9.63
2023-11-29T10:33:17.693Z,8.48
2023-11-29T10:34:22.363Z,8.33
2023-11-29T10:35:27.873Z,7.95
2023-11-29T10:36:31.224Z,7.32
2023-11-29T10:37:35.417Z,7.28
2023-11-29T10:38:46.090Z,7.22
2023-11-29T10:39:55.385Z,8.15
2023-11-29T10:41:02.348Z,7.28
2023-11-29T10:42:11.942Z,7.32
2023-11-29T10:43:19.959Z,7.78
2023-11-29T10:44:31.166Z,7.57
2023-11-29T10:45:37.423Z,7.33
2023-11-29T10:46:41.611Z,7.55
2023-11-29T10:47:54.504Z,6.78
2023-11-29T10:49:03.249Z,7.57
2023-11-29T10:50:12.078Z,7.03
2023-11-29T10:51:18.660Z,8.38
2023-11-29T10:52:22.191Z,9.27
2023-11-29T10:53:25.145Z,9.63
2023-11-29T10:54:39.812Z,9.98
2023-11-29T10:55:46.619Z,11.10
2023-11-29T10:56:53.145Z,11.47
2023-11-29T10:58:29.807Z,11.18
2023-11-29T10:59:36.210Z,10.13
2023-11-29T11:00:42.631Z,9.05
2023-11-29T11:01:46.462Z,10.85
2023-11-29T11:02:50.240Z,12.18
2023-11-29T11:03:53.543Z,14.00
2023-11-29T11:05:10.235Z,15.50
2023-11-29T11:06:23.556Z,13.20
2023-11-29T11:07:48.502Z,14.07
2023-11-29T11:08:52.373Z,15.00
2023-11-29T11:09:57.508Z,13.43
2023-11-29T11:11:00.248Z,10.00
2023-11-29T11:12:05.702Z,11.10
2023-11-29T11:13:36.583Z,10.63
2023-11-29T11:14:55.449Z,9.48
2023-11-29T11:15:59.456Z,9.70
2023-11-29T11:17:10.933Z,8.15
2023-11-29T11:18:17.360Z,9.65
2023-11-29T11:19:50.115Z,7.55
2023-11-29T11:20:57.880Z,6.83
2023-11-29T11:22:02.050Z,7.22
2023-11-29T11:23:06.708Z,8.60
2023-11-29T11:24:12.490Z,8.18
2023-11-29T11:25:17.193Z,7.37
2023-11-29T11:26:19.850Z,8.75
2023-11-29T11:27:31.457Z,7.43
2023-11-29T11:28:41.255Z,7.30
2023-11-29T11:29:45.393Z,7.95
2023-11-29T11:30:54.790Z,8.25
2023-11-29T11:31:57.804Z,7.00
2023-11-29T11:33:01.824Z,6.28
2023-11-29T11:34:11.047Z,7.30
2023-11-29T11:35:19.570Z,8.38
2023-11-29T11:36:24.206Z,7.28
2023-11-29T11:37:28.037Z,7.07
2023-11-29T11:38:30.719Z,8.10
2023-11-29T11:39:33.422Z,8.93
2023-11-29T11:40:39.388Z,8.52
2023-11-29T11:41:42.403Z,8.45
2023-11-29T11:42:48.556Z,8.37
2023-11-29T11:43:52.844Z,7.95
2023-11-29T11:44:56.347Z,8.32
2023-11-29T11:45:59.540Z,7.82
2023-11-29T11:47:02.195Z,8.25
2023-11-29T11:48:06.883Z,8.52
2023-11-29T11:49:10.047Z,8.23
2023-11-29T11:50:14.854Z,7.65
2023-11-29T11:51:22.007Z,7.85
2023-11-29T11:52:24.903Z,8.55
2023-11-29T11:53:27.795Z,8.60
2023-11-29T11:54:31.184Z,8.65
2023-11-29T11:55:35.669Z,8.15
2023-11-29T11:56:39.579Z,11.80
2023-11-29T11:57:45.173Z,8.30
2023-11-29T11:58:48.535Z,8.60
2023-11-29T11:59:52.426Z,8.70
2023-11-29T12:00:55.613Z,9.73
2023-11-29T12:01:58.999Z,9.27
2023-11-29T12:03:04.297Z,10.38
2023-11-29T12:04:07.263Z,8.37
2023-11-29T12:05:09.962Z,7.75
2023-11-29T12:06:13.387Z,8.30
2023-11-29T12:07:16.718Z,9.25
2023-11-29T12:08:20.162Z,9.07
2023-11-29T12:09:23.162Z,8.55
2023-11-29T12:10:26.360Z,9.95
2023-11-29T12:11:29.345Z,8.13
2023-11-29T12:12:35.366Z,8.57
2023-11-29T12:13:38.484Z,8.85
2023-11-29T12:14:46.832Z,8.07
2023-11-29T12:15:49.730Z,8.40
2023-11-29T12:16:53.117Z,8.60
2023-11-29T12:17:56.295Z,7.00
2023-11-29T12:18:59.832Z,9.52
2023-11-29T12:20:06.489Z,8.25
2023-11-29T12:21:09.770Z,7.72
2023-11-29T12:22:12.674Z,9.82
2023-11-29T12:23:15.947Z,9.93
2023-11-29T12:24:18.807Z,9.30
2023-11-29T12:25:21.756Z,10.80
2023-11-29T12:26:26.824Z,11.18
2023-11-29T12:27:29.872Z,8.90
2023-11-29T12:28:34.179Z,8.98
2023-11-29T12:29:48.252Z,9.98
2023-11-29T12:30:55.110Z,10.55
2023-11-29T12:31:58.455Z,8.98
2023-11-29T12:33:01.133Z,9.35
2023-11-29T12:34:05.753Z,10.65
2023-11-29T12:35:10.015Z,10.25
2023-11-29T12:36:13.123Z,10.50
2023-11-29T12:37:17.243Z,10.75
2023-11-29T12:38:20.422Z,10.10
2023-11-29T12:39:23.665Z,11.12
2023-11-29T12:40:26.423Z,10.10
2023-11-29T12:41:30.949Z,11.05
2023-11-29T12:42:33.950Z,12.07
2023-11-29T12:43:36.608Z,9.70
2023-11-29T12:44:39.841Z,10.43
2023-11-29T12:45:42.757Z,11.40
2023-11-29T12:46:45.433Z,10.63
2023-11-29T12:47:48.509Z,12.30
2023-11-29T12:48:51.729Z,13.27
2023-11-29T12:49:54.964Z,10.50
2023-11-29T12:50:57.962Z,10.43
2023-11-29T12:52:00.889Z,11.93
2023-11-29T12:53:04.565Z,11.15
2023-11-29T12:54:13.014Z,13.52
2023-11-29T12:55:23.698Z,12.77
2023-11-29T12:56:26.571Z,10.13
2023-11-29T12:57:32.046Z,10.70
2023-11-29T12:58:37.897Z,8.73
2023-11-29T12:59:40.930Z,11.98
2023-11-29T13:00:46.624Z,11.10
2023-11-29T13:01:50.624Z,10.95
2023-11-29T13:02:53.581Z,10.90
2023-11-29T13:03:56.749Z,9.77
2023-11-29T13:05:02.997Z,9.93
2023-11-29T13:06:08.191Z,11.30
2023-11-29T13:07:12.358Z,10.38
2023-11-29T13:08:15.047Z,14.30
2023-11-29T13:09:17.713Z,11.35
2023-11-29T13:10:20.642Z,10.35
2023-11-29T13:11:23.957Z,10.10
2023-11-29T13:12:28.991Z,9.55
2023-11-29T13:13:31.861Z,9.90
2023-11-29T13:14:42.998Z,12.77
2023-11-29T13:15:47.500Z,11.93
2023-11-29T13:16:50.737Z,11.40
2023-11-29T13:17:53.466Z,11.45
2023-11-29T13:18:56.376Z,10.07
2023-11-29T13:19:59.107Z,12.13
2023-11-29T13:21:02.520Z,12.18
2023-11-29T13:22:05.538Z,13.18
2023-11-29T13:23:08.256Z,12.43
2023-11-29T13:24:11.316Z,11.35
2023-11-29T13:25:14.103Z,10.50
2023-11-29T13:26:16.712Z,9.93
2023-11-29T13:27:20.772Z,10.93
2023-11-29T13:28:23.633Z,13.55
2023-11-29T13:29:26.208Z,14.10
2023-11-29T13:30:29.229Z,13.62
2023-11-29T13:31:32.202Z,14.87
2023-11-29T13:32:35.221Z,11.77
2023-11-29T13:33:38.310Z,13.30
2023-11-29T13:34:42.024Z,10.65
2023-11-29T13:35:45.385Z,12.18
2023-11-29T13:36:49.285Z,12.90
2023-11-29T13:37:52.869Z,13.13
2023-11-29T13:38:55.616Z,12.60
2023-11-29T13:39:58.330Z,11.10
2023-11-29T13:41:01.023Z,10.50
2023-11-29T13:42:04.313Z,13.93
2023-11-29T13:43:07.683Z,12.93
2023-11-29T13:44:10.579Z,11.25
2023-11-29T13:45:13.486Z,11.55
2023-11-29T13:46:16.230Z,13.52
2023-11-29T13:47:19.036Z,12.02
2023-11-29T13:48:22.506Z,12.73
2023-11-29T13:49:25.775Z,15.15
2023-11-29T13:50:29.014Z,13.20
2023-11-29T13:51:31.900Z,13.88
2023-11-29T13:52:34.653Z,12.70